Time;durP1;ratioP1;P1;durP2;ratioP2;P2;SDS_P1;SDS_P2;PMS_P1;PMS_P2;Temp;Humidity;BMP_temperature;BMP_pressure;BME280_temperature;BME280_humidity;BME280_pressure;Samples;Min_cycle;Max_cycle;Signal;HPM_P1;HPM_P2
2023/10/18 00:00:34;;;;;;;1.90;1.20;;;;;;;;;;4950733;29;20587;-72
2023/10/18 00:03:03;;;;;;;1.67;1.23;;;;;;;;;;4949995;28;20039;-72
2023/10/18 00:05:31;;;;;;;1.63;1.20;;;;;;;;;;4949868;28;20023;-72
2023/10/18 00:07:57;;;;;;;2.15;1.10;;;;;;;;;;4965244;28;20046;-72
2023/10/18 00:10:27;;;;;;;1.25;0.93;;;;;;;;;;4969419;28;20437;-72
2023/10/18 00:12:53;;;;;;;1.30;0.95;;;;;;;;;;4969636;28;20057;-72
2023/10/18 00:15:20;;;;;;;1.70;1.05;;;;;;;;;;4969514;28;20035;-72
2023/10/18 00:17:46;;;;;;;3.20;1.70;;;;;;;;;;4966519;28;20041;-72
2023/10/18 00:20:25;;;;;;;1.92;1.40;;;;;;;;;;4968589;28;20026;-72
2023/10/18 00:22:54;;;;;;;2.88;1.30;;;;;;;;;;4982228;28;20035;-72
2023/10/18 00:25:22;;;;;;;1.77;1.23;;;;;;;;;;4988490;28;20036;-72
2023/10/18 00:27:48;;;;;;;3.05;1.35;;;;;;;;;;4974988;28;20035;-71
2023/10/18 00:30:17;;;;;;;2.25;1.58;;;;;;;;;;4968934;28;20037;-72
2023/10/18 00:32:44;;;;;;;1.85;1.33;;;;;;;;;;4981711;28;20034;-73
2023/10/18 00:35:31;;;;;;;1.67;1.40;;;;;;;;;;4968815;28;20440;-73
2023/10/18 00:37:57;;;;;;;1.80;1.17;;;;;;;;;;4961745;28;20040;-72
2023/10/18 00:43:22;;;;;;;2.60;1.10;;;;;;;;;;4971783;28;20477;-72
2023/10/18 00:45:50;;;;;;;2.00;1.00;;;;;;;;;;4967198;28;20049;-72
2023/10/18 00:48:28;;;;;;;1.70;1.27;;;;;;;;;;4970623;28;20466;-72
2023/10/18 00:50:56;;;;;;;3.40;0.98;;;;;;;;;;4980136;28;20045;-71
2023/10/18 00:53:24;;;;;;;0.70;0.60;;;;;;;;;;4968333;28;20100;-71
2023/10/18 00:55:59;;;;;;;3.83;0.80;;;;;;;;;;4971326;28;20126;-71
2023/10/18 00:58:32;;;;;;;2.35;0.90;;;;;;;;;;4964884;28;20034;-71
2023/10/18 01:01:01;;;;;;;1.30;0.90;;;;;;;;;;4971639;28;20035;-71
2023/10/18 01:03:32;;;;;;;3.58;1.10;;;;;;;;;;4963753;28;20113;-72
2023/10/18 01:05:59;;;;;;;0.60;0.60;;;;;;;;;;4972418;28;20055;-72
2023/10/18 01:08:26;;;;;;;1.05;0.68;;;;;;;;;;4974558;28;20480;-72
2023/10/18 01:10:51;;;;;;;1.85;0.60;;;;;;;;;;4975960;28;20039;-73
2023/10/18 01:13:20;;;;;;;0.93;0.50;;;;;;;;;;4972645;28;20027;-73
2023/10/18 01:15:48;;;;;;;1.00;0.60;;;;;;;;;;4972569;28;20058;-72
2023/10/18 01:18:13;;;;;;;0.82;0.52;;;;;;;;;;4971078;28;20102;-72
2023/10/18 01:20:40;;;;;;;0.90;0.35;;;;;;;;;;4972982;28;20046;-72
2023/10/18 01:23:07;;;;;;;0.75;0.32;;;;;;;;;;4956010;28;20030;-71
2023/10/18 01:25:34;;;;;;;0.75;0.63;;;;;;;;;;4971509;28;20183;-72
2023/10/18 01:28:00;;;;;;;0.65;0.40;;;;;;;;;;4971476;28;20023;-72
2023/10/18 01:30:27;;;;;;;0.35;0.30;;;;;;;;;;4971299;28;20071;-72
2023/10/18 01:32:54;;;;;;;0.80;0.50;;;;;;;;;;4980454;28;20027;-72
2023/10/18 01:35:21;;;;;;;1.33;0.82;;;;;;;;;;4974281;28;20113;-72
2023/10/18 01:37:49;;;;;;;2.08;0.80;;;;;;;;;;4974664;28;20432;-70
2023/10/18 01:42:58;;;;;;;1.60;0.60;;;;;;;;;;4974551;28;20110;-71
2023/10/18 01:45:30;;;;;;;0.80;0.47;;;;;;;;;;4974470;28;20620;-73
2023/10/18 01:47:57;;;;;;;0.60;0.43;;;;;;;;;;4975830;28;20382;-71
2023/10/18 01:50:26;;;;;;;1.50;0.90;;;;;;;;;;4990700;28;20413;-72
2023/10/18 01:52:52;;;;;;;1.60;1.00;;;;;;;;;;4975698;28;20073;-72
2023/10/18 01:55:18;;;;;;;5.22;1.85;;;;;;;;;;4974143;28;20038;-71
2023/10/18 01:57:45;;;;;;;3.50;1.77;;;;;;;;;;4975198;28;20047;-71
2023/10/18 02:00:15;;;;;;;4.20;3.03;;;;;;;;;;4975712;28;20027;-71
2023/10/18 02:02:40;;;;;;;4.38;3.13;;;;;;;;;;4975346;28;20050;-72
2023/10/18 02:05:08;;;;;;;4.95;2.90;;;;;;;;;;4974154;28;20042;-72
2023/10/18 02:07:35;;;;;;;6.05;3.25;;;;;;;;;;4975489;28;20393;-71
2023/10/18 02:10:02;;;;;;;5.55;3.15;;;;;;;;;;4975490;28;20054;-71
2023/10/18 02:12:29;;;;;;;5.85;3.35;;;;;;;;;;4973826;28;20022;-73
2023/10/18 02:15:00;;;;;;;5.00;3.10;;;;;;;;;;4974015;28;20503;-72
2023/10/18 02:17:27;;;;;;;5.85;3.63;;;;;;;;;;4973910;28;20042;-71
2023/10/18 02:19:53;;;;;;;4.97;2.80;;;;;;;;;;4973818;28;20087;-72
2023/10/18 02:22:19;;;;;;;6.32;3.28;;;;;;;;;;4973783;28;20504;-73
2023/10/18 02:24:45;;;;;;;4.00;2.47;;;;;;;;;;4983058;28;20050;-72
2023/10/18 02:27:19;;;;;;;4.22;2.47;;;;;;;;;;4973608;28;20163;-71
2023/10/18 02:29:46;;;;;;;3.67;2.13;;;;;;;;;;4973843;28;20046;-71
2023/10/18 02:32:23;;;;;;;5.00;2.20;;;;;;;;;;4975604;28;20098;-72
2023/10/18 02:34:52;;;;;;;4.82;2.60;;;;;;;;;;4979507;28;20401;-72
2023/10/18 02:37:19;;;;;;;3.15;1.70;;;;;;;;;;4974635;28;20019;-73
2023/10/18 02:39:45;;;;;;;3.55;1.70;;;;;;;;;;4974070;28;20181;-72
2023/10/18 02:42:13;;;;;;;2.53;1.40;;;;;;;;;;4973941;28;20030;-71
2023/10/18 02:44:44;;;;;;;5.50;1.80;;;;;;;;;;4974818;28;20126;-71
2023/10/18 02:47:16;;;;;;;3.15;1.63;;;;;;;;;;4972761;28;20147;-70
2023/10/18 02:49:47;;;;;;;3.63;1.85;;;;;;;;;;4974739;28;20045;-71
2023/10/18 02:52:16;;;;;;;2.63;1.40;;;;;;;;;;4982602;28;20082;-72
2023/10/18 02:54:45;;;;;;;2.83;1.90;;;;;;;;;;4972743;28;20030;-73
2023/10/18 02:57:13;;;;;;;2.97;1.58;;;;;;;;;;4972717;28;20039;-73
2023/10/18 02:59:41;;;;;;;4.32;1.63;;;;;;;;;;4974266;28;20027;-72
2023/10/18 03:02:13;;;;;;;3.58;1.30;;;;;;;;;;4972481;28;20039;-72
2023/10/18 03:04:42;;;;;;;2.75;1.30;;;;;;;;;;4963872;28;20050;-72
2023/10/18 03:07:12;;;;;;;4.75;1.60;;;;;;;;;;4972498;28;20030;-73
2023/10/18 03:09:39;;;;;;;4.95;1.50;;;;;;;;;;4972534;28;20034;-71
2023/10/18 03:12:14;;;;;;;2.92;1.52;;;;;;;;;;4972433;28;20159;-70
2023/10/18 03:14:53;;;;;;;2.78;1.70;;;;;;;;;;4972310;28;20125;-73
2023/10/18 03:19:50;;;;;;;2.67;1.50;;;;;;;;;;4993253;28;20022;-73
2023/10/18 03:22:19;;;;;;;2.75;1.55;;;;;;;;;;4989524;28;20083;-73
2023/10/18 03:24:51;;;;;;;2.58;1.70;;;;;;;;;;4972476;28;20038;-73
2023/10/18 03:27:16;;;;;;;3.22;1.98;;;;;;;;;;4970814;28;20043;-71
2023/10/18 03:29:43;;;;;;;3.50;1.65;;;;;;;;;;4973484;28;20029;-71
2023/10/18 03:32:14;;;;;;;2.95;1.30;;;;;;;;;;4972073;28;20442;-71
2023/10/18 03:34:43;;;;;;;3.53;1.70;;;;;;;;;;4971853;28;20033;-72
2023/10/18 03:37:18;;;;;;;2.78;1.90;;;;;;;;;;4986127;28;20031;-71
2023/10/18 03:39:47;;;;;;;2.83;1.90;;;;;;;;;;4972064;28;20034;-72
2023/10/18 03:42:26;;;;;;;3.08;1.73;;;;;;;;;;4987838;28;20027;-72
2023/10/18 03:44:52;;;;;;;3.08;1.60;;;;;;;;;;4970803;28;20054;-71
2023/10/18 03:47:24;;;;;;;2.47;1.50;;;;;;;;;;4970746;28;20522;-72
2023/10/18 03:49:53;;;;;;;2.15;1.25;;;;;;;;;;4970469;28;20058;-73
2023/10/18 03:52:21;;;;;;;3.00;1.73;;;;;;;;;;4986795;28;20019;-71
2023/10/18 03:57:29;;;;;;;3.05;1.50;;;;;;;;;;4971559;28;20046;-73
2023/10/18 03:59:58;;;;;;;3.85;1.80;;;;;;;;;;4971053;28;20050;-73
2023/10/18 04:04:57;;;;;;;1.65;1.00;;;;;;;;;;4971655;28;20266;-72
2023/10/18 04:07:24;;;;;;;1.37;1.00;;;;;;;;;;4972114;28;20461;-73
2023/10/18 04:09:53;;;;;;;2.22;0.90;;;;;;;;;;4971919;28;20381;-73
2023/10/18 04:12:27;;;;;;;0.95;0.60;;;;;;;;;;4971967;28;20039;-73
2023/10/18 04:14:58;;;;;;;2.03;0.60;;;;;;;;;;4972028;28;20030;-71
2023/10/18 04:20:09;;;;;;;2.70;0.70;;;;;;;;;;4971348;28;20100;-72
2023/10/18 04:22:38;;;;;;;1.65;0.80;;;;;;;;;;4971581;28;20085;-73
2023/10/18 04:27:50;;;;;;;2.13;1.20;;;;;;;;;;4971456;28;20444;-72
2023/10/18 04:30:16;;;;;;;1.45;0.90;;;;;;;;;;4972007;28;20027;-73
2023/10/18 04:32:43;;;;;;;1.45;0.85;;;;;;;;;;4986501;28;20130;-72
2023/10/18 04:35:25;;;;;;;2.55;0.85;;;;;;;;;;4971443;28;20023;-71
2023/10/18 04:37:53;;;;;;;2.17;1.30;;;;;;;;;;4971519;28;20034;-73
2023/10/18 04:40:28;;;;;;;4.32;1.20;;;;;;;;;;4971947;28;20130;-70
2023/10/18 04:42:57;;;;;;;3.22;1.77;;;;;;;;;;4971539;28;20125;-73
2023/10/18 04:45:23;;;;;;;5.32;1.50;;;;;;;;;;4986544;28;20045;-71
2023/10/18 04:48:06;;;;;;;5.40;1.60;;;;;;;;;;4990836;28;20489;-72
2023/10/18 04:50:38;;;;;;;2.10;1.48;;;;;;;;;;4980320;28;20070;-71
2023/10/18 04:53:10;;;;;;;3.05;1.20;;;;;;;;;;4972158;28;20176;-72
2023/10/18 04:55:46;;;;;;;1.70;1.10;;;;;;;;;;4971004;28;20081;-71
2023/10/18 04:58:29;;;;;;;2.03;1.08;;;;;;;;;;4971440;28;20039;-72
2023/10/18 05:01:01;;;;;;;1.83;1.20;;;;;;;;;;4971923;28;20034;-73
2023/10/18 05:03:33;;;;;;;2.72;0.98;;;;;;;;;;4972199;28;20026;-72
2023/10/18 05:06:00;;;;;;;1.77;1.10;;;;;;;;;;4972307;28;20059;-73
2023/10/18 05:08:30;;;;;;;1.58;0.90;;;;;;;;;;4979078;28;20049;-73
2023/10/18 05:11:22;;;;;;;2.78;1.23;;;;;;;;;;4984390;28;20031;-73
2023/10/18 05:13:42;;;;;;;1.02;0.63;;;;;;;;;;4975042;28;20035;-73
2023/10/18 05:16:11;;;;;;;2.63;0.80;;;;;;;;;;4974290;28;20019;-72
2023/10/18 05:18:37;;;;;;;2.42;0.63;;;;;;;;;;4976246;28;20039;-72
2023/10/18 05:21:08;;;;;;;1.55;0.80;;;;;;;;;;4975728;28;20037;-72
2023/10/18 05:23:34;;;;;;;3.85;0.75;;;;;;;;;;4975409;28;20121;-72
2023/10/18 05:26:17;;;;;;;3.45;1.10;;;;;;;;;;4975135;28;20031;-73
2023/10/18 05:29:01;;;;;;;2.67;1.50;;;;;;;;;;4975512;28;20446;-72
2023/10/18 05:34:02;;;;;;;4.68;1.17;;;;;;;;;;4975252;28;20154;-73
2023/10/18 05:36:35;;;;;;;2.15;1.10;;;;;;;;;;4975108;28;20045;-73
2023/10/18 05:41:48;;;;;;;3.45;1.13;;;;;;;;;;4975271;28;20105;-74
2023/10/18 05:44:15;;;;;;;1.80;1.20;;;;;;;;;;4975356;28;20077;-73
2023/10/18 05:46:41;;;;;;;1.40;0.80;;;;;;;;;;4975216;28;20041;-72
2023/10/18 05:49:13;;;;;;;3.05;1.02;;;;;;;;;;4975307;28;20077;-71
2023/10/18 05:51:51;;;;;;;1.60;0.90;;;;;;;;;;4975330;28;20034;-72
2023/10/18 05:54:19;;;;;;;3.30;1.00;;;;;;;;;;4975340;28;20477;-72
2023/10/18 05:56:49;;;;;;;1.30;0.82;;;;;;;;;;4975841;28;20065;-73
2023/10/18 05:59:27;;;;;;;3.17;1.23;;;;;;;;;;4975221;28;20046;-73
2023/10/18 06:01:54;;;;;;;3.95;2.92;;;;;;;;;;4976593;28;20034;-71
2023/10/18 06:04:55;;;;;;;6.05;3.13;;;;;;;;;;4981327;28;20038;-72
2023/10/18 06:07:13;;;;;;;2.35;1.55;;;;;;;;;;4986391;28;20189;-72
2023/10/18 06:10:13;;;;;;;3.38;1.90;;;;;;;;;;4974810;28;20496;-73
2023/10/18 06:12:27;;;;;;;3.75;1.80;;;;;;;;;;4974673;28;20043;-73
2023/10/18 06:14:54;;;;;;;1.75;0.90;;;;;;;;;;4974672;28;20355;-74
2023/10/18 06:17:26;;;;;;;1.85;0.95;;;;;;;;;;4974694;28;20034;-74
2023/10/18 06:19:52;;;;;;;2.63;1.17;;;;;;;;;;4974093;28;20090;-71
2023/10/18 06:22:39;;;;;;;2.08;1.25;;;;;;;;;;4974109;28;20037;-72
2023/10/18 06:25:09;;;;;;;2.10;1.10;;;;;;;;;;4974442;28;20050;-72
2023/10/18 06:27:41;;;;;;;3.38;1.67;;;;;;;;;;4973234;28;20039;-72
2023/10/18 06:30:17;;;;;;;1.40;0.90;;;;;;;;;;4957799;28;20042;-73
2023/10/18 06:32:46;;;;;;;7.40;1.70;;;;;;;;;;4974004;28;20106;-73
2023/10/18 06:35:17;;;;;;;1.85;0.88;;;;;;;;;;4974102;28;20117;-72
2023/10/18 06:37:44;;;;;;;2.10;1.55;;;;;;;;;;4983068;28;20144;-72
2023/10/18 06:43:03;;;;;;;3.35;2.15;;;;;;;;;;4993021;28;20072;-73
2023/10/18 06:45:33;;;;;;;3.58;2.40;;;;;;;;;;4992439;28;20088;-73
2023/10/18 06:48:02;;;;;;;3.20;2.17;;;;;;;;;;4973663;28;20050;-71
2023/10/18 06:50:28;;;;;;;5.57;2.80;;;;;;;;;;4973867;28;20045;-70
2023/10/18 06:52:54;;;;;;;4.03;2.67;;;;;;;;;;4973436;28;20043;-71
2023/10/18 06:58:12;;;;;;;5.30;3.80;;;;;;;;;;4973702;28;20489;-71
2023/10/18 07:00:43;;;;;;;5.45;3.67;;;;;;;;;;4973758;28;20508;-71
2023/10/18 07:03:16;;;;;;;6.28;4.13;;;;;;;;;;4973379;28;20046;-71
2023/10/18 07:05:44;;;;;;;5.40;3.50;;;;;;;;;;4973126;28;20122;-73
2023/10/18 07:08:19;;;;;;;4.85;3.47;;;;;;;;;;4971802;28;20096;-71
2023/10/18 07:10:57;;;;;;;5.28;3.42;;;;;;;;;;4973788;28;20173;-73
2023/10/18 07:13:33;;;;;;;3.67;2.42;;;;;;;;;;4973374;28;20034;-70
2023/10/18 07:16:12;;;;;;;3.90;2.30;;;;;;;;;;4987143;28;20035;-72
2023/10/18 07:18:39;;;;;;;2.60;1.80;;;;;;;;;;4973197;28;20045;-71
2023/10/18 07:21:09;;;;;;;2.28;1.30;;;;;;;;;;4973665;28;20023;-71
2023/10/18 07:23:36;;;;;;;3.20;1.20;;;;;;;;;;4987689;28;20057;-71
2023/10/18 07:26:07;;;;;;;2.35;1.10;;;;;;;;;;4986252;28;20436;-71
2023/10/18 07:28:40;;;;;;;2.38;0.90;;;;;;;;;;4992631;28;20125;-71
2023/10/18 07:31:09;;;;;;;4.22;0.60;;;;;;;;;;4991411;28;20547;-72
2023/10/18 07:33:41;;;;;;;3.08;0.93;;;;;;;;;;4991344;28;20642;-71
2023/10/18 07:36:08;;;;;;;0.95;0.70;;;;;;;;;;4992289;28;20163;-71
2023/10/18 07:38:40;;;;;;;2.78;1.13;;;;;;;;;;4991816;28;20024;-71
2023/10/18 07:41:09;;;;;;;4.47;1.83;;;;;;;;;;4992622;28;20058;-71
2023/10/18 07:43:35;;;;;;;1.90;1.00;;;;;;;;;;4992218;28;20058;-70
2023/10/18 07:46:09;;;;;;;9.05;1.38;;;;;;;;;;4991747;28;20129;-70
2023/10/18 07:48:46;;;;;;;4.85;0.88;;;;;;;;;;4992353;28;20034;-71
2023/10/18 07:51:26;;;;;;;1.40;0.70;;;;;;;;;;4992267;28;20077;-69
2023/10/18 07:53:55;;;;;;;1.13;0.57;;;;;;;;;;4992687;28;20053;-71
2023/10/18 07:56:27;;;;;;;5.57;1.17;;;;;;;;;;4991895;28;20030;-70
2023/10/18 07:59:45;;;;;;;14.30;2.75;;;;;;;;;;4992336;28;20026;-72
2023/10/18 08:01:51;;;;;;;20.42;3.17;;;;;;;;;;4993835;28;20472;-71
2023/10/18 08:04:22;;;;;;;5.65;1.75;;;;;;;;;;4990891;28;20080;-71
2023/10/18 08:06:53;;;;;;;9.80;1.70;;;;;;;;;;4992290;28;20504;-71
2023/10/18 08:09:28;;;;;;;7.50;1.17;;;;;;;;;;4992140;28;20092;-73
2023/10/18 08:11:55;;;;;;;9.27;2.05;;;;;;;;;;4992236;28;20034;-72
2023/10/18 08:14:26;;;;;;;4.40;1.25;;;;;;;;;;4992171;28;20343;-72
2023/10/18 08:16:55;;;;;;;17.05;2.95;;;;;;;;;;4992040;28;20176;-72
2023/10/18 08:19:23;;;;;;;4.20;1.35;;;;;;;;;;4992746;28;20025;-72
2023/10/18 08:24:35;;;;;;;3.65;1.80;;;;;;;;;;4992675;28;20100;-72
2023/10/18 08:27:10;;;;;;;9.77;3.00;;;;;;;;;;4992513;28;20031;-72
2023/10/18 08:29:39;;;;;;;10.23;2.17;;;;;;;;;;5005644;28;20034;-72
2023/10/18 08:32:18;;;;;;;8.95;1.95;;;;;;;;;;4991810;28;20119;-73
2023/10/18 08:34:48;;;;;;;8.13;2.45;;;;;;;;;;4992252;28;20041;-72
2023/10/18 08:37:14;;;;;;;4.63;1.52;;;;;;;;;;4992046;28;20069;-73
2023/10/18 08:39:55;;;;;;;2.20;1.33;;;;;;;;;;4992413;28;20049;-73
2023/10/18 08:42:30;;;;;;;2.35;1.10;;;;;;;;;;4991661;28;20045;-72
2023/10/18 08:44:56;;;;;;;12.60;1.83;;;;;;;;;;4994984;28;20034;-71
2023/10/18 08:47:26;;;;;;;2.50;1.73;;;;;;;;;;4996250;28;20018;-72
2023/10/18 08:49:55;;;;;;;9.20;1.77;;;;;;;;;;4996328;28;20125;-72
2023/10/18 08:52:25;;;;;;;2.90;1.40;;;;;;;;;;4992485;28;20113;-72
2023/10/18 08:54:51;;;;;;;2.38;1.05;;;;;;;;;;4976203;28;20046;-73
2023/10/18 08:57:38;;;;;;;2.42;1.27;;;;;;;;;;4976638;28;20037;-71
2023/10/18 09:02:54;;;;;;;9.45;1.73;;;;;;;;;;4976697;28;20038;-73
2023/10/18 09:05:22;;;;;;;5.70;1.70;;;;;;;;;;4975927;28;20366;-74
2023/10/18 09:07:53;;;;;;;2.30;1.45;;;;;;;;;;4990546;28;20440;-73
2023/10/18 09:18:23;;;;;;;2.00;1.33;;;;;;;;;;4975877;28;20035;-74
2023/10/18 09:20:49;;;;;;;8.73;2.03;;;;;;;;;;4976128;28;20031;-74
2023/10/18 09:23:21;;;;;;;3.85;1.33;;;;;;;;;;4975365;28;20037;-75
2023/10/18 09:25:48;;;;;;;3.47;1.17;;;;;;;;;;4975140;28;20054;-75
2023/10/18 09:28:25;;;;;;;10.93;1.80;;;;;;;;;;4975410;28;20031;-74
2023/10/18 09:31:02;;;;;;;4.43;1.58;;;;;;;;;;4975459;28;20269;-73
2023/10/18 09:33:48;;;;;;;4.95;1.50;;;;;;;;;;4975494;28;20046;-73
2023/10/18 09:36:29;;;;;;;6.93;1.80;;;;;;;;;;4975766;28;20578;-75
2023/10/18 09:38:57;;;;;;;3.38;1.13;;;;;;;;;;4975646;28;20110;-72
2023/10/18 09:41:26;;;;;;;3.97;1.65;;;;;;;;;;4975184;28;20492;-75
2023/10/18 09:43:55;;;;;;;6.65;1.85;;;;;;;;;;4975170;28;20035;-73
2023/10/18 09:46:21;;;;;;;4.05;1.40;;;;;;;;;;4974990;28;20716;-73
2023/10/18 09:48:47;;;;;;;2.60;1.20;;;;;;;;;;4973664;28;20043;-72
2023/10/18 09:51:20;;;;;;;2.67;1.25;;;;;;;;;;4975107;28;20037;-71
2023/10/18 09:53:50;;;;;;;7.65;2.08;;;;;;;;;;4989177;28;20031;-73
2023/10/18 09:56:33;;;;;;;3.92;1.70;;;;;;;;;;4974623;28;20331;-71
2023/10/18 09:59:25;;;;;;;4.45;2.25;;;;;;;;;;4972950;28;20071;-73
2023/10/18 10:02:07;;;;;;;7.53;1.85;;;;;;;;;;4974169;28;20441;-72
2023/10/18 10:04:35;;;;;;;8.90;2.50;;;;;;;;;;4973398;28;20413;-74
2023/10/18 10:09:51;;;;;;;9.00;1.98;;;;;;;;;;4974871;28;20054;-73
2023/10/18 10:12:18;;;;;;;4.20;1.90;;;;;;;;;;4973600;28;20034;-71
2023/10/18 10:14:45;;;;;;;3.60;2.42;;;;;;;;;;4992604;28;20046;-74
2023/10/18 10:17:20;;;;;;;7.22;2.33;;;;;;;;;;4992635;28;20026;-73
2023/10/18 10:19:54;;;;;;;6.50;1.80;;;;;;;;;;4991496;28;20432;-72
2023/10/18 10:22:24;;;;;;;12.27;2.13;;;;;;;;;;4992820;28;20418;-73
2023/10/18 10:25:03;;;;;;;6.25;1.38;;;;;;;;;;4992674;28;20042;-72
2023/10/18 10:30:11;;;;;;;7.18;2.65;;;;;;;;;;4996511;28;20086;-73
2023/10/18 10:32:37;;;;;;;7.95;1.33;;;;;;;;;;4973792;28;20052;-73
2023/10/18 10:35:17;;;;;;;5.75;1.70;;;;;;;;;;4971026;28;20035;-73
2023/10/18 10:38:06;;;;;;;2.58;1.10;;;;;;;;;;4973495;28;20039;-72
2023/10/18 10:43:03;;;;;;;2.30;0.80;;;;;;;;;;4973115;28;20500;-73
2023/10/18 10:47:57;;;;;;;6.72;1.70;;;;;;;;;;4971795;28;20378;-73
2023/10/18 10:50:45;;;;;;;1.75;0.70;;;;;;;;;;4972157;28;20068;-72
2023/10/18 10:53:11;;;;;;;4.53;1.20;;;;;;;;;;4973794;28;20085;-73
2023/10/18 10:55:43;;;;;;;4.10;1.38;;;;;;;;;;4972303;28;20041;-73
2023/10/18 10:58:17;;;;;;;9.63;2.65;;;;;;;;;;4974223;28;20059;-74
2023/10/18 11:00:59;;;;;;;8.57;1.42;;;;;;;;;;4972896;28;20481;-73
2023/10/18 11:03:53;;;;;;;5.03;1.90;;;;;;;;;;4972072;28;20027;-72
2023/10/18 11:06:32;;;;;;;20.10;2.55;;;;;;;;;;4971213;28;20045;-74
2023/10/18 11:08:58;;;;;;;4.55;1.40;;;;;;;;;;4973248;28;20294;-73
2023/10/18 11:11:27;;;;;;;4.07;1.38;;;;;;;;;;4973351;28;20496;-73
2023/10/18 11:13:53;;;;;;;2.92;1.00;;;;;;;;;;4973164;28;20062;-72
2023/10/18 11:16:24;;;;;;;4.78;1.27;;;;;;;;;;4973231;28;20122;-73
2023/10/18 11:18:49;;;;;;;9.13;1.52;;;;;;;;;;4971859;28;20401;-72
2023/10/18 11:21:24;;;;;;;8.00;1.40;;;;;;;;;;4973665;28;20070;-73
2023/10/18 11:24:01;;;;;;;2.92;1.20;;;;;;;;;;4974201;28;20037;-74
2023/10/18 11:26:27;;;;;;;8.02;1.10;;;;;;;;;;4972803;28;20039;-73
2023/10/18 11:28:56;;;;;;;1.95;0.90;;;;;;;;;;4973509;28;20060;-73
2023/10/18 11:31:29;;;;;;;7.60;1.50;;;;;;;;;;4972375;28;20035;-72
2023/10/18 11:34:21;;;;;;;6.88;1.00;;;;;;;;;;4973512;28;20038;-73
2023/10/18 11:36:49;;;;;;;3.90;0.80;;;;;;;;;;4986527;28;20039;-73
2023/10/18 11:39:18;;;;;;;4.63;0.90;;;;;;;;;;4973775;28;20058;-71
2023/10/18 11:41:49;;;;;;;2.67;1.40;;;;;;;;;;4973089;28;20137;-74
2023/10/18 11:44:31;;;;;;;8.55;1.60;;;;;;;;;;4972710;28;20050;-72
2023/10/18 11:47:20;;;;;;;2.67;1.00;;;;;;;;;;4972114;28;20535;-72
2023/10/18 11:49:53;;;;;;;2.63;1.17;;;;;;;;;;4974474;28;20179;-73
2023/10/18 11:52:25;;;;;;;0.83;0.60;;;;;;;;;;4973080;28;20039;-73
2023/10/18 11:55:02;;;;;;;4.75;1.20;;;;;;;;;;4972352;28;20283;-72
2023/10/18 11:57:46;;;;;;;1.60;0.90;;;;;;;;;;4972861;28;20042;-72
2023/10/18 12:02:51;;;;;;;4.88;1.40;;;;;;;;;;4971915;28;20447;-73
2023/10/18 12:05:23;;;;;;;7.32;2.15;;;;;;;;;;4988073;28;20090;-74
2023/10/18 12:07:53;;;;;;;4.70;1.75;;;;;;;;;;4973340;28;20485;-73
2023/10/18 12:10:25;;;;;;;5.10;1.65;;;;;;;;;;4972837;28;20039;-73
2023/10/18 12:12:55;;;;;;;2.28;1.20;;;;;;;;;;4971181;28;20042;-73
2023/10/18 12:15:25;;;;;;;4.50;1.30;;;;;;;;;;4972701;28;20097;-71
2023/10/18 12:17:52;;;;;;;2.50;1.02;;;;;;;;;;4972438;28;20436;-73
2023/10/18 12:20:25;;;;;;;3.67;1.20;;;;;;;;;;4972660;28;20037;-74
2023/10/18 12:22:52;;;;;;;8.38;1.58;;;;;;;;;;4986488;28;20192;-74
2023/10/18 12:25:20;;;;;;;4.65;2.35;;;;;;;;;;4972272;28;20041;-72
2023/10/18 12:27:52;;;;;;;6.88;1.50;;;;;;;;;;4973498;28;20524;-72
2023/10/18 12:30:38;;;;;;;4.93;1.30;;;;;;;;;;4972635;28;20125;-72
2023/10/18 12:33:14;;;;;;;4.72;1.70;;;;;;;;;;4972702;28;20481;-73
2023/10/18 12:35:40;;;;;;;1.83;1.27;;;;;;;;;;4972961;28;20481;-73
2023/10/18 12:38:15;;;;;;;3.20;1.50;;;;;;;;;;4972555;28;20073;-73
2023/10/18 12:40:58;;;;;;;3.13;1.63;;;;;;;;;;4973015;28;20043;-74
2023/10/18 12:43:26;;;;;;;8.02;2.22;;;;;;;;;;4971457;28;20386;-72
2023/10/18 12:45:52;;;;;;;6.18;2.20;;;;;;;;;;4972380;28;20035;-73
2023/10/18 12:48:24;;;;;;;4.07;2.00;;;;;;;;;;4987622;28;20039;-73
2023/10/18 12:50:51;;;;;;;5.05;2.33;;;;;;;;;;4986676;28;20062;-76
2023/10/18 12:58:47;;;;;;;3.20;1.98;;;;;;;;;;4972550;28;20035;-73
2023/10/18 13:01:16;;;;;;;3.05;2.00;;;;;;;;;;4972573;28;20086;-73
2023/10/18 13:03:45;;;;;;;3.88;1.75;;;;;;;;;;4972244;28;20019;-73
2023/10/18 13:06:17;;;;;;;1.80;1.40;;;;;;;;;;4971138;28;20464;-72
2023/10/18 13:08:56;;;;;;;2.10;1.30;;;;;;;;;;4972351;28;20039;-72
2023/10/18 13:14:07;;;;;;;1.98;1.10;;;;;;;;;;4972792;28;20041;-72
2023/10/18 13:16:33;;;;;;;1.77;0.60;;;;;;;;;;4988374;28;20023;-73
2023/10/18 13:18:59;;;;;;;1.25;0.85;;;;;;;;;;4972448;28;20068;-73
2023/10/18 13:21:27;;;;;;;0.47;0.45;;;;;;;;;;4972328;28;20046;-74
2023/10/18 13:23:57;;;;;;;0.65;0.50;;;;;;;;;;4972517;28;20050;-74
2023/10/18 13:26:28;;;;;;;9.60;0.95;;;;;;;;;;4972314;28;20151;-72
2023/10/18 13:28:59;;;;;;;1.38;0.60;;;;;;;;;;4972347;28;20046;-71
2023/10/18 13:31:31;;;;;;;2.80;0.75;;;;;;;;;;4975594;28;20405;-72
2023/10/18 13:34:06;;;;;;;1.50;0.70;;;;;;;;;;4975879;28;20038;-72
2023/10/18 13:36:33;;;;;;;5.97;1.17;;;;;;;;;;4974633;28;20043;-74
2023/10/18 13:38:59;;;;;;;3.78;0.70;;;;;;;;;;4975997;28;20030;-71
2023/10/18 13:41:25;;;;;;;2.40;0.73;;;;;;;;;;4975115;28;20035;-73
2023/10/18 13:43:54;;;;;;;3.95;0.90;;;;;;;;;;4975145;28;20023;-71
2023/10/18 13:46:22;;;;;;;1.58;0.77;;;;;;;;;;4975282;28;20169;-73
2023/10/18 13:48:51;;;;;;;6.25;2.20;;;;;;;;;;4975646;28;20027;-74
2023/10/18 13:51:18;;;;;;;1.70;1.00;;;;;;;;;;4976193;28;20062;-75
2023/10/18 13:53:45;;;;;;;1.10;0.93;;;;;;;;;;4975353;28;20106;-72
2023/10/18 13:56:15;;;;;;;2.65;1.20;;;;;;;;;;4974412;28;20474;-72
2023/10/18 13:58:42;;;;;;;3.63;1.15;;;;;;;;;;4975019;28;20421;-72
2023/10/18 14:01:17;;;;;;;2.15;1.02;;;;;;;;;;4975045;28;20029;-72
2023/10/18 14:03:48;;;;;;;1.00;0.80;;;;;;;;;;4972778;28;20444;-73
2023/10/18 14:06:18;;;;;;;4.47;0.80;;;;;;;;;;4974554;28;20493;-71
2023/10/18 14:08:45;;;;;;;1.75;0.70;;;;;;;;;;4953815;28;20043;-72
2023/10/18 14:11:15;;;;;;;2.30;0.80;;;;;;;;;;4955299;28;20164;-71
2023/10/18 14:13:45;;;;;;;2.97;1.08;;;;;;;;;;4955666;28;20031;-72
2023/10/18 14:16:12;;;;;;;0.88;0.73;;;;;;;;;;4955693;28;20050;-72
2023/10/18 14:18:40;;;;;;;2.70;1.00;;;;;;;;;;4955204;28;20478;-72
2023/10/18 14:21:12;;;;;;;1.08;0.88;;;;;;;;;;4955138;29;20046;-73
2023/10/18 14:23:41;;;;;;;1.20;0.90;;;;;;;;;;4955061;28;20031;-71
2023/10/18 14:26:08;;;;;;;2.00;0.77;;;;;;;;;;4955975;28;20087;-73
2023/10/18 14:28:34;;;;;;;0.95;0.85;;;;;;;;;;4974131;28;20070;-74
2023/10/18 14:31:07;;;;;;;2.00;0.90;;;;;;;;;;4973476;28;20073;-71
2023/10/18 14:33:34;;;;;;;1.20;0.80;;;;;;;;;;4973761;28;20042;-73
2023/10/18 14:36:13;;;;;;;1.77;0.88;;;;;;;;;;4974677;28;20055;-73
2023/10/18 14:38:39;;;;;;;4.30;1.27;;;;;;;;;;4974532;28;20034;-73
2023/10/18 14:41:17;;;;;;;1.30;0.90;;;;;;;;;;4973524;28;20034;-73
2023/10/18 14:43:53;;;;;;;1.13;0.75;;;;;;;;;;4977308;28;20089;-74
2023/10/18 14:46:21;;;;;;;2.08;0.90;;;;;;;;;;4977975;28;20146;-73
2023/10/18 14:48:47;;;;;;;1.77;0.80;;;;;;;;;;4973003;28;20034;-74
2023/10/18 14:51:13;;;;;;;2.35;0.90;;;;;;;;;;4974344;28;20132;-73
2023/10/18 14:53:42;;;;;;;1.17;0.88;;;;;;;;;;4974265;28;20073;-74
2023/10/18 14:56:12;;;;;;;2.60;1.13;;;;;;;;;;4973894;28;20078;-72
2023/10/18 14:58:43;;;;;;;3.05;1.02;;;;;;;;;;4974448;28;20113;-73
2023/10/18 15:01:12;;;;;;;0.98;0.85;;;;;;;;;;4973927;28;20039;-72
2023/10/18 15:03:47;;;;;;;1.73;1.13;;;;;;;;;;4970626;28;20532;-71
2023/10/18 15:06:17;;;;;;;1.65;0.80;;;;;;;;;;4973570;28;20073;-73
2023/10/18 15:08:44;;;;;;;1.45;0.80;;;;;;;;;;4973675;28;20058;-73
2023/10/18 15:11:15;;;;;;;2.78;1.08;;;;;;;;;;4972879;28;20042;-75
2023/10/18 15:13:43;;;;;;;1.70;1.10;;;;;;;;;;4973380;28;20034;-72
2023/10/18 15:16:10;;;;;;;3.13;1.00;;;;;;;;;;4973373;28;20062;-72
2023/10/18 15:18:36;;;;;;;2.22;0.90;;;;;;;;;;4973547;28;20418;-72
2023/10/18 15:21:03;;;;;;;2.30;0.95;;;;;;;;;;4973818;28;20105;-71
2023/10/18 15:23:30;;;;;;;3.22;1.00;;;;;;;;;;4974009;28;20023;-73
2023/10/18 15:26:06;;;;;;;1.63;0.90;;;;;;;;;;4972732;28;20085;-71
2023/10/18 15:28:35;;;;;;;3.00;1.10;;;;;;;;;;4973392;28;20053;-73
2023/10/18 15:31:08;;;;;;;1.75;1.08;;;;;;;;;;4973620;28;20027;-74
2023/10/18 15:33:37;;;;;;;0.80;0.80;;;;;;;;;;4972938;28;20035;-73
2023/10/18 15:36:11;;;;;;;2.42;1.00;;;;;;;;;;4972005;28;20109;-73
2023/10/18 15:38:37;;;;;;;3.10;1.30;;;;;;;;;;4972283;28;20713;-73
2023/10/18 15:41:06;;;;;;;2.03;1.10;;;;;;;;;;4973288;28;20033;-72
2023/10/18 15:43:46;;;;;;;2.10;0.93;;;;;;;;;;4973088;28;20441;-70
2023/10/18 15:46:14;;;;;;;1.55;1.00;;;;;;;;;;4973180;28;20035;-70
2023/10/18 15:48:50;;;;;;;2.15;0.90;;;;;;;;;;4973089;28;20061;-74
2023/10/18 15:51:16;;;;;;;1.73;1.08;;;;;;;;;;4972871;28;20046;-71
2023/10/18 15:53:43;;;;;;;1.55;1.00;;;;;;;;;;4970210;28;20019;-74
2023/10/18 15:56:09;;;;;;;1.85;1.13;;;;;;;;;;4972225;28;20497;-73
2023/10/18 15:58:41;;;;;;;1.38;0.80;;;;;;;;;;4972854;28;20520;-72
2023/10/18 16:01:16;;;;;;;5.05;1.08;;;;;;;;;;4972560;28;20064;-72
2023/10/18 16:03:47;;;;;;;4.07;1.00;;;;;;;;;;4976549;28;20037;-73
2023/10/18 16:06:14;;;;;;;9.07;1.38;;;;;;;;;;4971274;28;20038;-74
2023/10/18 16:08:46;;;;;;;2.67;1.50;;;;;;;;;;4972418;28;20035;-71